createdAt,value
2022-12-08T00:19:29.311Z,10.27
2022-12-08T00:21:56.992Z,9.99
2022-12-08T00:24:25.718Z,10.20
2022-12-08T00:26:55.982Z,10.15
2022-12-08T00:29:23.185Z,10.31
2022-12-08T00:31:50.838Z,10.14
2022-12-08T00:34:18.412Z,10.23
2022-12-08T00:36:45.796Z,10.25
2022-12-08T00:39:14.033Z,10.12
2022-12-08T00:41:59.638Z,9.77
2022-12-08T00:44:26.856Z,10.08
2022-12-08T00:46:53.919Z,10.18
2022-12-08T00:49:21.008Z,10.34
2022-12-08T00:51:48.025Z,9.89
2022-12-08T00:54:16.480Z,9.80
2022-12-08T00:56:43.283Z,9.80
2022-12-08T00:59:10.407Z,9.94
2022-12-08T01:01:37.511Z,9.74
2022-12-08T01:04:06.677Z,10.06
2022-12-08T01:06:36.129Z,9.85
2022-12-08T01:09:07.160Z,9.76
2022-12-08T01:11:35.024Z,9.66
2022-12-08T01:14:06.327Z,9.69
2022-12-08T01:16:37.538Z,9.72
2022-12-08T01:19:04.712Z,9.86
2022-12-08T01:21:31.798Z,9.71
2022-12-08T01:24:00.880Z,9.65
2022-12-08T01:26:27.742Z,9.68
2022-12-08T01:28:54.863Z,9.65
2022-12-08T01:31:24.520Z,9.78
2022-12-08T01:33:54.790Z,9.77
2022-12-08T01:36:26.935Z,9.64
2022-12-08T01:38:55.212Z,9.63
2022-12-08T01:41:24.868Z,9.59
2022-12-08T01:44:24.154Z,9.50
2022-12-08T01:46:54.644Z,9.31
2022-12-08T01:49:38.425Z,9.22
2022-12-08T01:52:16.612Z,9.05
2022-12-08T01:54:50.783Z,9.13
2022-12-08T01:57:28.058Z,9.23
2022-12-08T02:00:11.897Z,8.95
2022-12-08T02:03:00.860Z,9.11
2022-12-08T02:05:33.731Z,9.05
2022-12-08T02:08:06.413Z,9.31
2022-12-08T02:10:39.359Z,9.27
2022-12-08T02:13:14.420Z,9.28
2022-12-08T02:16:05.439Z,9.41
2022-12-08T02:19:30.417Z,9.34
2022-12-08T02:22:17.166Z,9.08
2022-12-08T02:25:12.185Z,9.28
2022-12-08T02:28:14.800Z,9.43
2022-12-08T02:31:11.901Z,9.72
2022-12-08T02:34:05.617Z,9.68
2022-12-08T02:36:50.933Z,9.74
2022-12-08T02:39:53.800Z,9.37
2022-12-08T02:42:31.139Z,9.49
2022-12-08T02:45:04.575Z,9.52
2022-12-08T02:47:33.738Z,9.53
2022-12-08T02:50:01.333Z,9.43
2022-12-08T02:52:28.756Z,9.79
2022-12-08T02:55:27.054Z,9.79
2022-12-08T02:58:35.878Z,9.58
2022-12-08T03:01:32.162Z,9.67
2022-12-08T03:04:10.702Z,9.33
2022-12-08T03:06:51.860Z,9.44
2022-12-08T03:09:43.106Z,9.47
2022-12-08T03:12:36.512Z,9.02
2022-12-08T03:15:22.623Z,9.07
2022-12-08T03:17:57.584Z,9.59
2022-12-08T03:20:30.170Z,9.53
2022-12-08T03:23:03.065Z,9.32
2022-12-08T03:25:37.346Z,9.45
2022-12-08T03:28:09.358Z,9.68
2022-12-08T03:30:43.549Z,9.68
2022-12-08T03:33:37.831Z,9.42
2022-12-08T03:36:09.858Z,9.52
2022-12-08T03:38:58.998Z,9.21
2022-12-08T03:41:28.830Z,9.47
2022-12-08T03:44:29.095Z,9.46
2022-12-08T03:47:00.442Z,9.41
2022-12-08T03:49:27.844Z,9.35
2022-12-08T03:51:54.877Z,9.54
2022-12-08T03:54:37.183Z,9.73
2022-12-08T03:57:16.137Z,9.94
2022-12-08T03:59:46.497Z,9.96
2022-12-08T04:02:13.564Z,10.04
2022-12-08T04:04:44.824Z,9.84
2022-12-08T04:07:14.118Z,9.71
2022-12-08T04:09:43.707Z,9.66
2022-12-08T04:15:17.979Z,9.71
2022-12-08T04:18:20.998Z,9.71
2022-12-08T04:21:43.306Z,9.66
2022-12-08T04:31:16.120Z,9.79
2022-12-08T04:33:43.321Z,10.07
2022-12-08T04:36:10.616Z,10.06
2022-12-08T04:38:40.557Z,10.02
2022-12-08T04:41:07.839Z,9.47
2022-12-08T04:43:35.918Z,10.00
2022-12-08T04:46:06.261Z,9.53
2022-12-08T04:48:33.524Z,9.78
2022-12-08T04:51:00.598Z,9.99
2022-12-08T04:53:30.547Z,10.10
2022-12-08T04:55:57.795Z,9.70
2022-12-08T04:58:28.322Z,9.58
2022-12-08T05:01:05.888Z,9.43
2022-12-08T05:03:33.077Z,9.63
2022-12-08T05:06:09.358Z,9.56
2022-12-08T05:12:11.749Z,9.62
2022-12-08T05:17:57.151Z,9.74
2022-12-08T05:20:28.201Z,9.66
2022-12-08T05:22:55.282Z,9.83
2022-12-08T05:25:24.739Z,9.48
2022-12-08T05:28:24.629Z,9.47
2022-12-08T05:30:59.656Z,9.52
2022-12-08T05:33:26.798Z,9.50
2022-12-08T05:35:56.398Z,9.41
2022-12-08T05:38:30.873Z,9.58
2022-12-08T05:40:58.189Z,9.57
2022-12-08T05:43:25.441Z,9.75
2022-12-08T05:45:52.633Z,9.42
2022-12-08T05:48:22.189Z,9.65
2022-12-08T05:50:50.304Z,9.84
2022-12-08T05:53:19.226Z,9.72
2022-12-08T05:55:48.775Z,10.81
2022-12-08T05:58:18.592Z,10.18
2022-12-08T06:00:46.884Z,10.04
2022-12-08T06:03:17.404Z,9.80
2022-12-08T06:05:46.220Z,9.98
2022-12-08T06:08:14.109Z,9.77
2022-12-08T06:10:46.979Z,9.84
2022-12-08T17:19:40.229Z,12.64
2022-12-08T17:22:17.212Z,12.63
2022-12-08T17:24:44.262Z,12.68
2022-12-08T17:27:14.351Z,12.57
2022-12-08T17:29:41.281Z,12.58
2022-12-08T17:32:57.415Z,12.64
2022-12-08T18:21:40.509Z,12.49
2022-12-08T18:24:11.041Z,12.39
2022-12-08T18:27:12.073Z,12.37
2022-12-08T18:29:39.016Z,12.42
2022-12-08T18:32:44.266Z,12.31
2022-12-08T18:35:13.430Z,12.46
2022-12-08T18:37:40.312Z,12.51
2022-12-08T18:40:10.350Z,12.49
2022-12-08T18:42:37.155Z,12.50
2022-12-08T18:45:06.853Z,12.47
2022-12-08T18:47:36.381Z,12.54
2022-12-08T18:50:05.975Z,12.49
2022-12-08T18:52:33.619Z,12.43
2022-12-08T18:55:08.584Z,12.46
2022-12-08T18:57:40.217Z,12.37
2022-12-08T19:00:08.867Z,12.54
2022-12-08T19:02:37.563Z,12.52
2022-12-08T19:05:08.507Z,12.64
2022-12-08T19:07:54.415Z,12.65
2022-12-08T19:10:23.813Z,12.57
2022-12-08T19:12:59.254Z,12.44
2022-12-08T19:15:26.555Z,12.61
2022-12-08T19:30:49.010Z,12.47
2022-12-08T19:51:05.295Z,12.61
2022-12-08T19:57:10.347Z,12.56
2022-12-08T20:00:57.561Z,12.49
2022-12-08T20:03:48.889Z,12.68
2022-12-08T20:06:32.946Z,12.67
2022-12-08T20:12:08.229Z,12.59
2022-12-08T20:15:18.368Z,12.64
2022-12-08T20:17:50.515Z,12.48
2022-12-08T20:20:17.526Z,12.62
2022-12-08T20:22:54.439Z,12.56
2022-12-08T20:25:38.812Z,12.45
2022-12-08T20:52:58.230Z,12.50
2022-12-08T20:55:26.355Z,12.46
2022-12-08T20:58:00.246Z,12.42
2022-12-08T21:00:30.223Z,12.49
2022-12-08T21:03:07.720Z,12.83
2022-12-08T21:05:56.538Z,12.58
2022-12-08T23:17:56.997Z,12.59
2022-12-08T23:20:58.354Z,12.43
2022-12-08T23:24:03.081Z,12.70
2022-12-08T23:26:53.273Z,12.74
2022-12-08T23:29:20.264Z,12.79
2022-12-08T23:31:47.087Z,12.81
2022-12-08T23:34:54.737Z,12.83
2022-12-08T23:37:22.293Z,12.88
2022-12-08T23:39:49.683Z,12.68
2022-12-08T23:42:16.725Z,12.87
2022-12-08T23:45:11.026Z,12.76
